sensor_id;sensor_type;location;lat;lon;timestamp;P1;durP1;ratioP1;P2;durP2;ratioP2
15958;SDS011;8078;47.822;9.402;2022-08-03T00:01:29;2.75;;;1.85;;
15958;SDS011;8078;47.822;9.402;2022-08-03T00:03:55;2.13;;;1.83;;
15958;SDS011;8078;47.822;9.402;2022-08-03T00:06:20;1.75;;;1.65;;
15958;SDS011;8078;47.822;9.402;2022-08-03T00:08:46;1.90;;;1.70;;
15958;SDS011;8078;47.822;9.402;2022-08-03T00:11:11;1.80;;;1.70;;
15958;SDS011;8078;47.822;9.402;2022-08-03T00:13:37;1.75;;;1.65;;
15958;SDS011;8078;47.822;9.402;2022-08-03T00:16:03;3.63;;;2.00;;
15958;SDS011;8078;47.822;9.402;2022-08-03T00:18:29;1.88;;;1.77;;
15958;SDS011;8078;47.822;9.402;2022-08-03T00:20:54;2.13;;;1.90;;
15958;SDS011;8078;47.822;9.402;2022-08-03T00:23:20;2.80;;;1.95;;
15958;SDS011;8078;47.822;9.402;2022-08-03T00:25:45;2.30;;;1.98;;
15958;SDS011;8078;47.822;9.402;2022-08-03T00:28:11;2.20;;;2.00;;
15958;SDS011;8078;47.822;9.402;2022-08-03T00:30:37;1.70;;;1.60;;
15958;SDS011;8078;47.822;9.402;2022-08-03T00:33:02;2.80;;;2.10;;
15958;SDS011;8078;47.822;9.402;2022-08-03T00:35:28;1.95;;;1.85;;
15958;SDS011;8078;47.822;9.402;2022-08-03T00:37:54;2.72;;;1.92;;
15958;SDS011;8078;47.822;9.402;2022-08-03T00:40:20;2.20;;;2.00;;
15958;SDS011;8078;47.822;9.402;2022-08-03T00:42:50;2.33;;;1.90;;
15958;SDS011;8078;47.822;9.402;2022-08-03T00:45:22;2.97;;;1.80;;
15958;SDS011;8078;47.822;9.402;2022-08-03T00:47:49;1.92;;;1.83;;
15958;SDS011;8078;47.822;9.402;2022-08-03T00:50:15;2.72;;;1.70;;
15958;SDS011;8078;47.822;9.402;2022-08-03T00:52:42;2.25;;;1.83;;
15958;SDS011;8078;47.822;9.402;2022-08-03T00:55:09;2.58;;;2.05;;
15958;SDS011;8078;47.822;9.402;2022-08-03T00:57:35;3.50;;;1.80;;
15958;SDS011;8078;47.822;9.402;2022-08-03T01:00:01;2.33;;;2.13;;
15958;SDS011;8078;47.822;9.402;2022-08-03T01:02:27;1.65;;;1.55;;
15958;SDS011;8078;47.822;9.402;2022-08-03T01:04:53;2.40;;;2.05;;
15958;SDS011;8078;47.822;9.402;2022-08-03T01:27:17;3.05;;;2.10;;
15958;SDS011;8078;47.822;9.402;2022-08-03T01:30:06;2.65;;;1.83;;
15958;SDS011;8078;47.822;9.402;2022-08-03T01:32:36;3.17;;;1.80;;
15958;SDS011;8078;47.822;9.402;2022-08-03T01:35:24;3.03;;;2.08;;
15958;SDS011;8078;47.822;9.402;2022-08-03T01:37:56;2.17;;;1.80;;
15958;SDS011;8078;47.822;9.402;2022-08-03T01:40:34;2.17;;;1.98;;
15958;SDS011;8078;47.822;9.402;2022-08-03T01:43:03;2.72;;;1.83;;
15958;SDS011;8078;47.822;9.402;2022-08-03T01:45:32;3.20;;;1.85;;
15958;SDS011;8078;47.822;9.402;2022-08-03T01:48:00;2.15;;;1.83;;
15958;SDS011;8078;47.822;9.402;2022-08-03T01:50:28;3.80;;;1.80;;
15958;SDS011;8078;47.822;9.402;2022-08-03T01:52:55;2.20;;;2.00;;
15958;SDS011;8078;47.822;9.402;2022-08-03T01:55:23;4.40;;;1.90;;
15958;SDS011;8078;47.822;9.402;2022-08-03T01:57:52;4.47;;;2.50;;
15958;SDS011;8078;47.822;9.402;2022-08-03T02:00:19;2.33;;;2.13;;
15958;SDS011;8078;47.822;9.402;2022-08-03T02:02:46;2.00;;;1.90;;
15958;SDS011;8078;47.822;9.402;2022-08-03T02:05:13;3.38;;;2.10;;
15958;SDS011;8078;47.822;9.402;2022-08-03T02:07:40;4.07;;;2.20;;
15958;SDS011;8078;47.822;9.402;2022-08-03T02:10:07;3.08;;;2.10;;
15958;SDS011;8078;47.822;9.402;2022-08-03T02:12:35;2.60;;;2.28;;
15958;SDS011;8078;47.822;9.402;2022-08-03T02:15:02;2.53;;;2.33;;
15958;SDS011;8078;47.822;9.402;2022-08-03T02:17:29;2.53;;;2.33;;
15958;SDS011;8078;47.822;9.402;2022-08-03T02:19:58;3.28;;;2.20;;
15958;SDS011;8078;47.822;9.402;2022-08-03T02:22:25;2.63;;;2.42;;
15958;SDS011;8078;47.822;9.402;2022-08-03T02:24:52;2.75;;;2.20;;
15958;SDS011;8078;47.822;9.402;2022-08-03T02:27:22;3.47;;;2.35;;
15958;SDS011;8078;47.822;9.402;2022-08-03T02:29:52;2.72;;;2.22;;
15958;SDS011;8078;47.822;9.402;2022-08-03T02:32:30;3.25;;;2.55;;
15958;SDS011;8078;47.822;9.402;2022-08-03T02:34:59;2.30;;;2.05;;
15958;SDS011;8078;47.822;9.402;2022-08-03T02:37:33;2.40;;;2.20;;
15958;SDS011;8078;47.822;9.402;2022-08-03T02:40:02;2.45;;;2.10;;
15958;SDS011;8078;47.822;9.402;2022-08-03T02:42:30;2.40;;;2.17;;
15958;SDS011;8078;47.822;9.402;2022-08-03T02:44:57;2.72;;;2.25;;
15958;SDS011;8078;47.822;9.402;2022-08-03T02:47:25;3.15;;;2.20;;
15958;SDS011;8078;47.822;9.402;2022-08-03T02:49:53;3.33;;;2.40;;
15958;SDS011;8078;47.822;9.402;2022-08-03T02:52:22;3.05;;;2.05;;
15958;SDS011;8078;47.822;9.402;2022-08-03T02:54:54;3.83;;;2.35;;
15958;SDS011;8078;47.822;9.402;2022-08-03T02:57:22;3.47;;;2.60;;
15958;SDS011;8078;47.822;9.402;2022-08-03T02:59:50;2.50;;;2.30;;
15958;SDS011;8078;47.822;9.402;2022-08-03T03:02:17;2.92;;;2.65;;
15958;SDS011;8078;47.822;9.402;2022-08-03T03:04:44;4.65;;;2.55;;
15958;SDS011;8078;47.822;9.402;2022-08-03T03:07:11;2.92;;;2.65;;
15958;SDS011;8078;47.822;9.402;2022-08-03T03:09:38;4.53;;;2.78;;
15958;SDS011;8078;47.822;9.402;2022-08-03T03:12:04;3.30;;;2.80;;
15958;SDS011;8078;47.822;9.402;2022-08-03T03:14:33;4.20;;;2.58;;
15958;SDS011;8078;47.822;9.402;2022-08-03T03:17:01;2.95;;;2.70;;
15958;SDS011;8078;47.822;9.402;2022-08-03T03:19:27;3.15;;;2.85;;
15958;SDS011;8078;47.822;9.402;2022-08-03T03:21:56;4.03;;;2.63;;
15958;SDS011;8078;47.822;9.402;2022-08-03T03:24:25;2.75;;;2.53;;
15958;SDS011;8078;47.822;9.402;2022-08-03T03:26:54;5.07;;;3.28;;
15958;SDS011;8078;47.822;9.402;2022-08-03T03:29:21;2.92;;;2.63;;
15958;SDS011;8078;47.822;9.402;2022-08-03T03:31:47;4.20;;;2.72;;
15958;SDS011;8078;47.822;9.402;2022-08-03T03:34:13;3.72;;;2.63;;
15958;SDS011;8078;47.822;9.402;2022-08-03T03:36:40;3.13;;;2.80;;
15958;SDS011;8078;47.822;9.402;2022-08-03T03:39:05;3.28;;;2.78;;
15958;SDS011;8078;47.822;9.402;2022-08-03T03:41:31;3.60;;;3.20;;
15958;SDS011;8078;47.822;9.402;2022-08-03T03:43:57;3.47;;;3.15;;
15958;SDS011;8078;47.822;9.402;2022-08-03T03:46:23;3.42;;;3.13;;
15958;SDS011;8078;47.822;9.402;2022-08-03T03:48:49;4.05;;;2.97;;
15958;SDS011;8078;47.822;9.402;2022-08-03T03:51:14;3.58;;;3.22;;
15958;SDS011;8078;47.822;9.402;2022-08-03T03:53:52;4.03;;;2.92;;
15958;SDS011;8078;47.822;9.402;2022-08-03T03:56:22;4.43;;;3.40;;
15958;SDS011;8078;47.822;9.402;2022-08-03T03:58:48;3.30;;;3.00;;
15958;SDS011;8078;47.822;9.402;2022-08-03T04:01:14;3.83;;;2.97;;
15958;SDS011;8078;47.822;9.402;2022-08-03T04:03:41;5.30;;;3.38;;
15958;SDS011;8078;47.822;9.402;2022-08-03T04:06:06;3.72;;;3.00;;
15958;SDS011;8078;47.822;9.402;2022-08-03T04:08:50;3.55;;;2.90;;
15958;SDS011;8078;47.822;9.402;2022-08-03T04:11:35;5.47;;;3.38;;
15958;SDS011;8078;47.822;9.402;2022-08-03T04:14:18;4.32;;;3.40;;
15958;SDS011;8078;47.822;9.402;2022-08-03T04:17:03;5.88;;;2.83;;
15958;SDS011;8078;47.822;9.402;2022-08-03T04:19:41;4.20;;;2.95;;
15958;SDS011;8078;47.822;9.402;2022-08-03T04:22:11;3.78;;;3.35;;
15958;SDS011;8078;47.822;9.402;2022-08-03T04:24:48;3.00;;;2.67;;
15958;SDS011;8078;47.822;9.402;2022-08-03T04:27:20;5.00;;;2.90;;
15958;SDS011;8078;47.822;9.402;2022-08-03T04:29:48;4.20;;;2.90;;
15958;SDS011;8078;47.822;9.402;2022-08-03T04:32:17;4.97;;;2.70;;
15958;SDS011;8078;47.822;9.402;2022-08-03T04:34:44;3.35;;;3.00;;
15958;SDS011;8078;47.822;9.402;2022-08-03T04:37:11;3.20;;;2.65;;
15958;SDS011;8078;47.822;9.402;2022-08-03T04:39:41;3.08;;;2.83;;
15958;SDS011;8078;47.822;9.402;2022-08-03T04:42:08;3.15;;;2.53;;
15958;SDS011;8078;47.822;9.402;2022-08-03T04:44:39;4.85;;;2.85;;
15958;SDS011;8078;47.822;9.402;2022-08-03T04:47:06;3.03;;;2.72;;
15958;SDS011;8078;47.822;9.402;2022-08-03T04:49:31;5.35;;;2.70;;
15958;SDS011;8078;47.822;9.402;2022-08-03T04:51:59;3.00;;;2.47;;
15958;SDS011;8078;47.822;9.402;2022-08-03T04:54:25;2.95;;;2.45;;
15958;SDS011;8078;47.822;9.402;2022-08-03T04:56:51;7.38;;;2.78;;
15958;SDS011;8078;47.822;9.402;2022-08-03T04:59:16;4.85;;;2.83;;
15958;SDS011;8078;47.822;9.402;2022-08-03T05:01:42;3.90;;;2.65;;
15958;SDS011;8078;47.822;9.402;2022-08-03T05:04:08;6.97;;;2.70;;
15958;SDS011;8078;47.822;9.402;2022-08-03T05:06:34;3.28;;;2.65;;
15958;SDS011;8078;47.822;9.402;2022-08-03T05:08:59;3.65;;;2.92;;
15958;SDS011;8078;47.822;9.402;2022-08-03T05:11:25;2.55;;;2.35;;
15958;SDS011;8078;47.822;9.402;2022-08-03T05:13:51;3.35;;;2.72;;
15958;SDS011;8078;47.822;9.402;2022-08-03T05:16:17;2.67;;;2.47;;
15958;SDS011;8078;47.822;9.402;2022-08-03T05:18:42;3.38;;;2.42;;
15958;SDS011;8078;47.822;9.402;2022-08-03T05:21:09;2.55;;;2.35;;
15958;SDS011;8078;47.822;9.402;2022-08-03T05:23:38;3.97;;;2.47;;
15958;SDS011;8078;47.822;9.402;2022-08-03T05:26:04;2.70;;;2.50;;
15958;SDS011;8078;47.822;9.402;2022-08-03T05:28:30;5.15;;;2.70;;
15958;SDS011;8078;47.822;9.402;2022-08-03T05:30:55;4.38;;;2.67;;
15958;SDS011;8078;47.822;9.402;2022-08-03T05:33:21;3.13;;;2.83;;
15958;SDS011;8078;47.822;9.402;2022-08-03T05:35:47;4.88;;;2.20;;
15958;SDS011;8078;47.822;9.402;2022-08-03T05:38:12;3.38;;;2.50;;
15958;SDS011;8078;47.822;9.402;2022-08-03T05:40:38;4.95;;;2.40;;
15958;SDS011;8078;47.822;9.402;2022-08-03T05:43:03;3.05;;;2.50;;
15958;SDS011;8078;47.822;9.402;2022-08-03T05:45:29;2.97;;;2.45;;
15958;SDS011;8078;47.822;9.402;2022-08-03T05:47:54;3.72;;;2.33;;
15958;SDS011;8078;47.822;9.402;2022-08-03T05:50:20;3.10;;;2.78;;
15958;SDS011;8078;47.822;9.402;2022-08-03T05:52:46;4.68;;;2.53;;
15958;SDS011;8078;47.822;9.402;2022-08-03T05:55:11;5.57;;;2.63;;
15958;SDS011;8078;47.822;9.402;2022-08-03T05:57:38;2.45;;;2.25;;
15958;SDS011;8078;47.822;9.402;2022-08-03T06:00:04;2.53;;;2.33;;
15958;SDS011;8078;47.822;9.402;2022-08-03T06:02:34;2.67;;;2.38;;
15958;SDS011;8078;47.822;9.402;2022-08-03T06:05:00;3.70;;;2.65;;
15958;SDS011;8078;47.822;9.402;2022-08-03T06:07:26;2.85;;;2.40;;
15958;SDS011;8078;47.822;9.402;2022-08-03T06:09:52;4.72;;;2.63;;
15958;SDS011;8078;47.822;9.402;2022-08-03T06:12:17;4.13;;;2.65;;
15958;SDS011;8078;47.822;9.402;2022-08-03T06:14:43;2.95;;;2.65;;
15958;SDS011;8078;47.822;9.402;2022-08-03T06:17:08;4.00;;;2.40;;
15958;SDS011;8078;47.822;9.402;2022-08-03T06:19:34;4.22;;;2.40;;
15958;SDS011;8078;47.822;9.402;2022-08-03T06:22:00;3.33;;;2.28;;
15958;SDS011;8078;47.822;9.402;2022-08-03T06:24:25;3.72;;;2.35;;
15958;SDS011;8078;47.822;9.402;2022-08-03T06:26:51;2.78;;;2.58;;
15958;SDS011;8078;47.822;9.402;2022-08-03T06:29:16;3.05;;;2.20;;
15958;SDS011;8078;47.822;9.402;2022-08-03T06:31:42;4.25;;;2.28;;
15958;SDS011;8078;47.822;9.402;2022-08-03T06:34:07;2.90;;;2.60;;
15958;SDS011;8078;47.822;9.402;2022-08-03T06:36:33;3.28;;;2.42;;
15958;SDS011;8078;47.822;9.402;2022-08-03T06:38:59;2.40;;;2.20;;
15958;SDS011;8078;47.822;9.402;2022-08-03T06:41:26;2.83;;;2.10;;
15958;SDS011;8078;47.822;9.402;2022-08-03T06:43:52;2.72;;;2.20;;
15958;SDS011;8078;47.822;9.402;2022-08-03T06:46:18;2.60;;;2.28;;
15958;SDS011;8078;47.822;9.402;2022-08-03T06:48:44;3.13;;;2.40;;
15958;SDS011;8078;47.822;9.402;2022-08-03T06:51:09;2.58;;;2.17;;
15958;SDS011;8078;47.822;9.402;2022-08-03T06:53:35;3.35;;;2.25;;
15958;SDS011;8078;47.822;9.402;2022-08-03T06:56:01;2.88;;;2.35;;
15958;SDS011;8078;47.822;9.402;2022-08-03T06:58:28;3.58;;;2.63;;
15958;SDS011;8078;47.822;9.402;2022-08-03T07:00:53;3.08;;;2.28;;
15958;SDS011;8078;47.822;9.402;2022-08-03T07:03:19;2.40;;;2.20;;
15958;SDS011;8078;47.822;9.402;2022-08-03T07:05:45;2.58;;;2.22;;
15958;SDS011;8078;47.822;9.402;2022-08-03T07:08:11;5.22;;;2.20;;
15958;SDS011;8078;47.822;9.402;2022-08-03T07:10:37;2.75;;;2.40;;
15958;SDS011;8078;47.822;9.402;2022-08-03T07:13:03;4.10;;;2.35;;
15958;SDS011;8078;47.822;9.402;2022-08-03T07:15:29;3.33;;;2.40;;
15958;SDS011;8078;47.822;9.402;2022-08-03T07:17:55;5.28;;;2.60;;
15958;SDS011;8078;47.822;9.402;2022-08-03T07:20:21;2.40;;;2.20;;
15958;SDS011;8078;47.822;9.402;2022-08-03T07:22:46;2.58;;;2.38;;
15958;SDS011;8078;47.822;9.402;2022-08-03T07:25:12;2.50;;;2.30;;
15958;SDS011;8078;47.822;9.402;2022-08-03T07:27:41;2.38;;;2.17;;
15958;SDS011;8078;47.822;9.402;2022-08-03T07:30:11;2.60;;;2.40;;
15958;SDS011;8078;47.822;9.402;2022-08-03T07:32:37;2.55;;;2.35;;
15958;SDS011;8078;47.822;9.402;2022-08-03T07:35:04;2.38;;;2.03;;
15958;SDS011;8078;47.822;9.402;2022-08-03T07:37:30;1.90;;;1.80;;
15958;SDS011;8078;47.822;9.402;2022-08-03T07:39:57;3.35;;;2.45;;
15958;SDS011;8078;47.822;9.402;2022-08-03T07:42:27;4.20;;;2.55;;
15958;SDS011;8078;47.822;9.402;2022-08-03T07:44:54;2.80;;;2.42;;
15958;SDS011;8078;47.822;9.402;2022-08-03T07:47:24;3.03;;;2.40;;
15958;SDS011;8078;47.822;9.402;2022-08-03T07:49:51;3.72;;;2.20;;
15958;SDS011;8078;47.822;9.402;2022-08-03T07:52:16;3.55;;;2.03;;
15958;SDS011;8078;47.822;9.402;2022-08-03T07:55:01;3.65;;;2.13;;
15958;SDS011;8078;47.822;9.402;2022-08-03T07:57:26;2.35;;;2.15;;
15958;SDS011;8078;47.822;9.402;2022-08-03T07:59:52;3.65;;;2.50;;
15958;SDS011;8078;47.822;9.402;2022-08-03T08:02:17;2.63;;;2.03;;
15958;SDS011;8078;47.822;9.402;2022-08-03T08:04:43;3.83;;;2.45;;
15958;SDS011;8078;47.822;9.402;2022-08-03T08:07:09;3.58;;;2.40;;
15958;SDS011;8078;47.822;9.402;2022-08-03T08:09:34;2.53;;;2.33;;
15958;SDS011;8078;47.822;9.402;2022-08-03T08:12:01;3.92;;;2.08;;
15958;SDS011;8078;47.822;9.402;2022-08-03T08:14:26;2.08;;;1.95;;
15958;SDS011;8078;47.822;9.402;2022-08-03T08:16:52;2.50;;;2.00;;
15958;SDS011;8078;47.822;9.402;2022-08-03T08:19:17;2.60;;;1.67;;
15958;SDS011;8078;47.822;9.402;2022-08-03T08:21:43;5.38;;;1.90;;
15958;SDS011;8078;47.822;9.402;2022-08-03T08:24:08;2.03;;;1.70;;
15958;SDS011;8078;47.822;9.402;2022-08-03T08:26:34;3.45;;;1.90;;
15958;SDS011;8078;47.822;9.402;2022-08-03T08:29:00;2.10;;;1.90;;
15958;SDS011;8078;47.822;9.402;2022-08-03T08:31:26;2.15;;;2.03;;
15958;SDS011;8078;47.822;9.402;2022-08-03T08:33:51;2.20;;;2.00;;
15958;SDS011;8078;47.822;9.402;2022-08-03T08:36:17;5.50;;;2.00;;
15958;SDS011;8078;47.822;9.402;2022-08-03T08:38:43;2.38;;;2.10;;
15958;SDS011;8078;47.822;9.402;2022-08-03T08:41:09;1.90;;;1.80;;
15958;SDS011;8078;47.822;9.402;2022-08-03T08:43:35;2.65;;;1.92;;
15958;SDS011;8078;47.822;9.402;2022-08-03T08:46:01;2.60;;;1.77;;
15958;SDS011;8078;47.822;9.402;2022-08-03T08:48:27;1.90;;;1.73;;
15958;SDS011;8078;47.822;9.402;2022-08-03T08:50:54;3.50;;;1.88;;
15958;SDS011;8078;47.822;9.402;2022-08-03T08:53:21;1.88;;;1.60;;
15958;SDS011;8078;47.822;9.402;2022-08-03T08:55:50;1.50;;;1.40;;
15958;SDS011;8078;47.822;9.402;2022-08-03T08:58:19;1.80;;;1.70;;
15958;SDS011;8078;47.822;9.402;2022-08-03T09:00:47;3.70;;;2.15;;
15958;SDS011;8078;47.822;9.402;2022-08-03T09:03:13;2.35;;;1.67;;
15958;SDS011;8078;47.822;9.402;2022-08-03T09:05:41;1.92;;;1.50;;
15958;SDS011;8078;47.822;9.402;2022-08-03T09:10:45;2.65;;;1.92;;
15958;SDS011;8078;47.822;9.402;2022-08-03T09:14:32;2.05;;;1.88;;
15958;SDS011;8078;47.822;9.402;2022-08-03T09:16:59;2.95;;;1.88;;
15958;SDS011;8078;47.822;9.402;2022-08-03T09:19:29;4.55;;;1.73;;
15958;SDS011;8078;47.822;9.402;2022-08-03T09:22:12;1.88;;;1.73;;
15958;SDS011;8078;47.822;9.402;2022-08-03T09:28:03;2.50;;;1.63;;
15958;SDS011;8078;47.822;9.402;2022-08-03T09:30:32;2.83;;;1.50;;
15958;SDS011;8078;47.822;9.402;2022-08-03T09:32:59;1.95;;;1.60;;
15958;SDS011;8078;47.822;9.402;2022-08-03T09:37:03;2.88;;;1.33;;
15958;SDS011;8078;47.822;9.402;2022-08-03T09:39:39;1.63;;;1.40;;
15958;SDS011;8078;47.822;9.402;2022-08-03T09:42:05;3.45;;;1.33;;
15958;SDS011;8078;47.822;9.402;2022-08-03T09:44:34;1.67;;;1.30;;
15958;SDS011;8078;47.822;9.402;2022-08-03T09:49:09;2.05;;;1.75;;
15958;SDS011;8078;47.822;9.402;2022-08-03T09:51:35;4.60;;;1.60;;
15958;SDS011;8078;47.822;9.402;2022-08-03T09:54:01;2.60;;;1.80;;
15958;SDS011;8078;47.822;9.402;2022-08-03T09:56:41;4.25;;;1.50;;
15958;SDS011;8078;47.822;9.402;2022-08-03T10:00:56;2.65;;;1.27;;
15958;SDS011;8078;47.822;9.402;2022-08-03T10:03:23;1.45;;;1.35;;
15958;SDS011;8078;47.822;9.402;2022-08-03T10:05:49;1.55;;;1.38;;
15958;SDS011;8078;47.822;9.402;2022-08-03T10:08:16;3.42;;;1.08;;
15958;SDS011;8078;47.822;9.402;2022-08-03T10:12:55;2.67;;;1.20;;
15958;SDS011;8078;47.822;9.402;2022-08-03T10:15:21;1.05;;;1.05;;
15958;SDS011;8078;47.822;9.402;2022-08-03T10:17:47;1.65;;;1.25;;
15958;SDS011;8078;47.822;9.402;2022-08-03T10:20:12;1.60;;;1.50;;
15958;SDS011;8078;47.822;9.402;2022-08-03T10:24:55;1.75;;;1.30;;
15958;SDS011;8078;47.822;9.402;2022-08-03T10:27:26;3.08;;;1.30;;
15958;SDS011;8078;47.822;9.402;2022-08-03T10:29:55;2.25;;;1.65;;
15958;SDS011;8078;47.822;9.402;2022-08-03T10:32:27;1.75;;;1.35;;
15958;SDS011;8078;47.822;9.402;2022-08-03T10:40:14;1.65;;;1.50;;
15958;SDS011;8078;47.822;9.402;2022-08-03T10:42:44;1.30;;;1.20;;
15958;SDS011;8078;47.822;9.402;2022-08-03T10:45:17;1.48;;;1.30;;
15958;SDS011;8078;47.822;9.402;2022-08-03T10:47:52;3.40;;;1.45;;
15958;SDS011;8078;47.822;9.402;2022-08-03T10:50:21;1.40;;;1.30;;
15958;SDS011;8078;47.822;9.402;2022-08-03T10:53:40;2.80;;;1.45;;
15958;SDS011;8078;47.822;9.402;2022-08-03T11:02:10;1.08;;;1.08;;
15958;SDS011;8078;47.822;9.402;2022-08-03T11:04:37;3.40;;;1.30;;
15958;SDS011;8078;47.822;9.402;2022-08-03T11:09:52;1.52;;;1.40;;
15958;SDS011;8078;47.822;9.402;2022-08-03T11:12:22;1.52;;;1.38;;
15958;SDS011;8078;47.822;9.402;2022-08-03T11:14:49;4.00;;;1.30;;
15958;SDS011;8078;47.822;9.402;2022-08-03T11:17:15;1.80;;;1.35;;
15958;SDS011;8078;47.822;9.402;2022-08-03T11:19:45;2.40;;;1.38;;
15958;SDS011;8078;47.822;9.402;2022-08-03T11:22:15;1.25;;;1.15;;
15958;SDS011;8078;47.822;9.402;2022-08-03T11:35:06;1.98;;;1.40;;
15958;SDS011;8078;47.822;9.402;2022-08-03T11:37:35;2.15;;;1.20;;
15958;SDS011;8078;47.822;9.402;2022-08-03T11:45:57;3.38;;;1.40;;
15958;SDS011;8078;47.822;9.402;2022-08-03T11:51:02;1.50;;;1.40;;
15958;SDS011;8078;47.822;9.402;2022-08-03T11:53:30;2.55;;;1.30;;
15958;SDS011;8078;47.822;9.402;2022-08-03T11:56:01;2.17;;;1.20;;
15958;SDS011;8078;47.822;9.402;2022-08-03T11:58:27;1.60;;;1.50;;
15958;SDS011;8078;47.822;9.402;2022-08-03T12:01:02;1.40;;;1.30;;
15958;SDS011;8078;47.822;9.402;2022-08-03T12:03:32;1.50;;;1.40;;
15958;SDS011;8078;47.822;9.402;2022-08-03T12:06:16;2.10;;;1.50;;
15958;SDS011;8078;47.822;9.402;2022-08-03T12:08:42;1.95;;;1.45;;
15958;SDS011;8078;47.822;9.402;2022-08-03T12:11:11;1.70;;;1.23;;
15958;SDS011;8078;47.822;9.402;2022-08-03T12:13:42;1.20;;;1.10;;
15958;SDS011;8078;47.822;9.402;2022-08-03T12:18:07;2.40;;;1.63;;
15958;SDS011;8078;47.822;9.402;2022-08-03T12:20:37;3.83;;;1.45;;
15958;SDS011;8078;47.822;9.402;2022-08-03T12:23:04;1.65;;;1.38;;
15958;SDS011;8078;47.822;9.402;2022-08-03T12:25:31;1.30;;;1.20;;
15958;SDS011;8078;47.822;9.402;2022-08-03T12:28:19;1.45;;;1.35;;
15958;SDS011;8078;47.822;9.402;2022-08-03T12:30:48;1.77;;;1.38;;
15958;SDS011;8078;47.822;9.402;2022-08-03T12:33:16;2.28;;;1.38;;
15958;SDS011;8078;47.822;9.402;2022-08-03T12:35:47;2.65;;;1.58;;
15958;SDS011;8078;47.822;9.402;2022-08-03T12:38:34;3.35;;;1.63;;
15958;SDS011;8078;47.822;9.402;2022-08-03T12:41:03;2.05;;;1.40;;
15958;SDS011;8078;47.822;9.402;2022-08-03T12:43:30;1.48;;;1.30;;
15958;SDS011;8078;47.822;9.402;2022-08-03T12:46:13;1.58;;;1.40;;
15958;SDS011;8078;47.822;9.402;2022-08-03T12:48:59;2.60;;;1.52;;
15958;SDS011;8078;47.822;9.402;2022-08-03T12:54:08;1.58;;;1.30;;
15958;SDS011;8078;47.822;9.402;2022-08-03T12:56:56;1.40;;;1.30;;
15958;SDS011;8078;47.822;9.402;2022-08-03T12:59:22;1.55;;;1.30;;
15958;SDS011;8078;47.822;9.402;2022-08-03T13:01:50;1.45;;;1.30;;
15958;SDS011;8078;47.822;9.402;2022-08-03T13:04:24;2.95;;;1.20;;
15958;SDS011;8078;47.822;9.402;2022-08-03T13:06:58;1.45;;;1.20;;
15958;SDS011;8078;47.822;9.402;2022-08-03T13:09:25;3.10;;;1.20;;
15958;SDS011;8078;47.822;9.402;2022-08-03T13:12:05;1.45;;;1.35;;
15958;SDS011;8078;47.822;9.402;2022-08-03T13:14:34;1.80;;;1.13;;
15958;SDS011;8078;47.822;9.402;2022-08-03T13:16:59;1.80;;;1.35;;
15958;SDS011;8078;47.822;9.402;2022-08-03T13:19:25;2.10;;;1.27;;
15958;SDS011;8078;47.822;9.402;2022-08-03T13:21:50;2.33;;;1.20;;
15958;SDS011;8078;47.822;9.402;2022-08-03T13:24:16;1.60;;;1.40;;
15958;SDS011;8078;47.822;9.402;2022-08-03T13:26:43;3.15;;;1.27;;
15958;SDS011;8078;47.822;9.402;2022-08-03T13:29:08;1.85;;;1.48;;
15958;SDS011;8078;47.822;9.402;2022-08-03T13:31:34;1.63;;;1.52;;
15958;SDS011;8078;47.822;9.402;2022-08-03T13:34:00;1.48;;;1.38;;
15958;SDS011;8078;47.822;9.402;2022-08-03T13:36:25;1.50;;;1.40;;
15958;SDS011;8078;47.822;9.402;2022-08-03T13:38:51;2.30;;;1.52;;
15958;SDS011;8078;47.822;9.402;2022-08-03T13:41:17;1.30;;;1.13;;
15958;SDS011;8078;47.822;9.402;2022-08-03T13:43:43;2.40;;;1.40;;
15958;SDS011;8078;47.822;9.402;2022-08-03T13:46:08;2.03;;;1.55;;
15958;SDS011;8078;47.822;9.402;2022-08-03T13:48:34;1.45;;;1.35;;
15958;SDS011;8078;47.822;9.402;2022-08-03T13:50:59;5.78;;;1.40;;
15958;SDS011;8078;47.822;9.402;2022-08-03T13:53:25;1.25;;;1.15;;
15958;SDS011;8078;47.822;9.402;2022-08-03T13:55:50;1.52;;;1.42;;
15958;SDS011;8078;47.822;9.402;2022-08-03T13:58:16;3.65;;;1.55;;
15958;SDS011;8078;47.822;9.402;2022-08-03T14:00:41;3.53;;;1.40;;
15958;SDS011;8078;47.822;9.402;2022-08-03T14:03:07;2.50;;;1.40;;
15958;SDS011;8078;47.822;9.402;2022-08-03T14:05:33;2.53;;;1.30;;
15958;SDS011;8078;47.822;9.402;2022-08-03T14:08:00;2.65;;;1.50;;
15958;SDS011;8078;47.822;9.402;2022-08-03T14:10:26;1.30;;;1.20;;
15958;SDS011;8078;47.822;9.402;2022-08-03T14:12:51;2.22;;;1.35;;
15958;SDS011;8078;47.822;9.402;2022-08-03T14:15:17;2.10;;;1.38;;
15958;SDS011;8078;47.822;9.402;2022-08-03T14:17:43;2.63;;;1.40;;
15958;SDS011;8078;47.822;9.402;2022-08-03T14:20:09;2.13;;;1.38;;
15958;SDS011;8078;47.822;9.402;2022-08-03T14:22:36;2.28;;;1.50;;
15958;SDS011;8078;47.822;9.402;2022-08-03T14:25:02;2.72;;;1.38;;
15958;SDS011;8078;47.822;9.402;2022-08-03T14:27:28;2.40;;;1.45;;
15958;SDS011;8078;47.822;9.402;2022-08-03T14:29:53;1.50;;;1.33;;
15958;SDS011;8078;47.822;9.402;2022-08-03T14:32:23;1.63;;;1.52;;
15958;SDS011;8078;47.822;9.402;2022-08-03T14:34:49;1.67;;;1.42;;
15958;SDS011;8078;47.822;9.402;2022-08-03T14:37:15;9.95;;;1.65;;
15958;SDS011;8078;47.822;9.402;2022-08-03T14:39:41;3.70;;;1.50;;
15958;SDS011;8078;47.822;9.402;2022-08-03T14:42:07;1.60;;;1.50;;
15958;SDS011;8078;47.822;9.402;2022-08-03T14:44:33;1.50;;;1.40;;
15958;SDS011;8078;47.822;9.402;2022-08-03T14:46:59;2.15;;;1.48;;
15958;SDS011;8078;47.822;9.402;2022-08-03T14:49:25;2.22;;;1.40;;
15958;SDS011;8078;47.822;9.402;2022-08-03T14:51:51;1.20;;;1.10;;
15958;SDS011;8078;47.822;9.402;2022-08-03T14:54:17;1.85;;;1.60;;
15958;SDS011;8078;47.822;9.402;2022-08-03T14:56:43;1.42;;;1.33;;
15958;SDS011;8078;47.822;9.402;2022-08-03T14:59:09;1.15;;;1.05;;
15958;SDS011;8078;47.822;9.402;2022-08-03T15:02:08;3.05;;;1.40;;
15958;SDS011;8078;47.822;9.402;2022-08-03T15:04:34;2.08;;;1.50;;
15958;SDS011;8078;47.822;9.402;2022-08-03T15:07:01;1.88;;;1.00;;
15958;SDS011;8078;47.822;9.402;2022-08-03T15:09:27;1.88;;;1.40;;
15958;SDS011;8078;47.822;9.402;2022-08-03T15:11:53;1.83;;;1.58;;
15958;SDS011;8078;47.822;9.402;2022-08-03T15:15:41;1.92;;;1.40;;
15958;SDS011;8078;47.822;9.402;2022-08-03T15:18:07;1.50;;;1.40;;
15958;SDS011;8078;47.822;9.402;2022-08-03T15:20:33;1.58;;;1.30;;
15958;SDS011;8078;47.822;9.402;2022-08-03T15:22:59;1.77;;;1.27;;
15958;SDS011;8078;47.822;9.402;2022-08-03T15:25:25;1.73;;;1.40;;
15958;SDS011;8078;47.822;9.402;2022-08-03T15:27:52;1.40;;;1.30;;
15958;SDS011;8078;47.822;9.402;2022-08-03T15:30:18;1.35;;;1.25;;
15958;SDS011;8078;47.822;9.402;2022-08-03T15:32:44;1.85;;;1.30;;
15958;SDS011;8078;47.822;9.402;2022-08-03T15:35:10;2.13;;;1.20;;
15958;SDS011;8078;47.822;9.402;2022-08-03T15:39:59;2.42;;;1.23;;
15958;SDS011;8078;47.822;9.402;2022-08-03T15:42:25;1.60;;;1.50;;
15958;SDS011;8078;47.822;9.402;2022-08-03T15:44:51;1.60;;;1.50;;
15958;SDS011;8078;47.822;9.402;2022-08-03T15:47:17;3.33;;;1.50;;
15958;SDS011;8078;47.822;9.402;2022-08-03T15:49:43;1.40;;;1.30;;
15958;SDS011;8078;47.822;9.402;2022-08-03T15:52:09;4.00;;;1.33;;
15958;SDS011;8078;47.822;9.402;2022-08-03T15:54:35;1.70;;;1.40;;
15958;SDS011;8078;47.822;9.402;2022-08-03T15:57:01;1.80;;;1.45;;
15958;SDS011;8078;47.822;9.402;2022-08-03T15:59:27;2.03;;;1.40;;
15958;SDS011;8078;47.822;9.402;2022-08-03T16:01:53;1.40;;;1.30;;
15958;SDS011;8078;47.822;9.402;2022-08-03T16:04:21;1.63;;;1.50;;
15958;SDS011;8078;47.822;9.402;2022-08-03T16:06:47;1.98;;;1.58;;
15958;SDS011;8078;47.822;9.402;2022-08-03T16:09:13;1.40;;;1.30;;
15958;SDS011;8078;47.822;9.402;2022-08-03T16:11:39;1.42;;;1.33;;
15958;SDS011;8078;47.822;9.402;2022-08-03T16:14:05;1.30;;;1.20;;
15958;SDS011;8078;47.822;9.402;2022-08-03T16:16:31;1.50;;;1.40;;
15958;SDS011;8078;47.822;9.402;2022-08-03T16:18:58;2.65;;;1.30;;
15958;SDS011;8078;47.822;9.402;2022-08-03T16:21:24;1.45;;;1.35;;
15958;SDS011;8078;47.822;9.402;2022-08-03T16:23:50;2.03;;;1.25;;